EDHK 200050Z AUTO 27010KT 4800 // OVC005/// 15/14 Q1017 EDHK 200020Z AUTO 25007KT 4600 // BKN008/// 15/15 Q1017 EDHK 192350Z AUTO 26007KT 5000 // FEW007/// 14/14 Q1017 EDHK 192320Z AUTO 26007KT 5000 // FEW008/// BKN033/// 15/15 Q1017 EDHK 192250Z AUTO 26009KT 4100 // FEW007/// SCT034/// BKN041/// 15/15 Q1017 EDHK 192220Z AUTO 26007KT 4100 // FEW006/// BKN051/// OVC082/// 15/15 Q1017 EDHK 192150Z 26008KT 4600 FEW006 OVC048 16/16 Q1017 EDHK 192120Z 25008KT 5000 FEW008 BKN046 16/16 Q1017 EDHK 192050Z 24008KT 7000 NSC 16/16 Q1016 EDHK 192020Z 24006KT 8000 NSC 16/16 Q1016 EDHK 191950Z 23005KT 6000 NSC 16/16 Q1016 EDHK 191850Z VRB04KT 9000 FEW048 16/16 Q1015 EDHK 191820Z AUTO VRB02KT 3800 // FEW034/// SCT099/// BKN180/// 17/16 Q1015 EDHK 191750Z AUTO 15004KT 120V200 4500 // FEW071/// SCT097/// OVC110/// 17/16 Q1014 EDHK 191720Z AUTO 25005KT 210V290 6000 // FEW026/// BKN073/// OVC100/// 17/16 Q1016 EDHK 191650Z AUTO 29008KT 3400 // BKN028/// 18/15 Q1016 EDHK 191620Z AUTO 01005KT 9999 // FEW075/// BKN110/// 19/14 Q1015 EDHK 191550Z 01006KT CAVOK 19/15 Q1016 EDHK 191520Z 06005KT 020V100 CAVOK 20/14 Q1015 EDHK 191450Z 08007KT CAVOK 20/15 Q1016 EDHK 191420Z 05008KT CAVOK 20/14 Q1016 EDHK 191350Z 05006KT 360V080 CAVOK 20/15 Q1016 EDHK 191320Z 06009KT CAVOK 20/15 Q1016 EDHK 191250Z 02011KT 9999 SCT044 20/15 Q1016 EDHK 191220Z 29007KT 240V340 9999 FEW042 25/15 Q1016 EDHK 191150Z 28005KT 220V320 CAVOK 25/16 Q1017 EDHK 191120Z 27007KT 230V300 CAVOK 24/15 Q1017 EDHK 191050Z 27012KT CAVOK 24/14 Q1017 EDHK 191020Z 24010KT CAVOK 24/14 Q1017 EDHK 190950Z 24009KT 190V290 CAVOK 24/14 Q1017 EDHK 190920Z 22009KT 200V260 CAVOK 24/15 Q1017 EDHK 190850Z 22009KT 190V250 CAVOK 24/14 Q1017 EDHK 190820Z 21008KT 180V240 CAVOK 23/15 Q1018 EDHK 190750Z 18005KT CAVOK 22/15 Q1018 EDHK 190720Z 17005KT CAVOK 20/15 Q1018 EDHK 190650Z 16006KT CAVOK 19/14 Q1018 EDHK 190620Z 17004KT CAVOK 19/15 Q1018 EDHK 190550Z 17003KT CAVOK 18/15 Q1018 EDHK 190520Z 17004KT CAVOK 17/14 Q1018 EDHK 190450Z 17003KT CAVOK 17/14 Q1018 EDHK 190420Z AUTO 17004KT 9999 // NCD 16/14 Q1018 EDHK 190350Z AUTO 20003KT 9999 // NCD 16/14 Q1018 EDHK 190320Z AUTO 21003KT 190V250 9999 // NCD 17/14 Q1018 EDHK 190250Z AUTO 24005KT 9999 // NCD 17/14 Q1018 EDHK 190220Z AUTO 22005KT 9999 // NCD 18/14 Q1018 EDHK 190150Z AUTO 23005KT 9999 // NCD 19/14 Q1018 EDHK 190120Z AUTO 20006KT 160V230 9999 // NCD 19/14 Q1018 EDHK 190050Z AUTO 20006KT 170V230 9999 // NCD 19/14 Q1018 EDHK 190020Z AUTO 19005KT 160V220 9999 // NCD 19/14 Q1018 EDHK 182350Z AUTO 19006KT 9999 // NCD 20/14 Q1019 EDHK 182320Z AUTO 19006KT 160V220 9999 // NCD 20/14 Q1019 EDHK 182250Z AUTO 19006KT 150V210 9999 // NCD 20/14 Q1019 EDHK 182220Z AUTO 18007KT 150V210 9999 // FEW089/// 20/14 Q1019 EDHK 182150Z AUTO 17006KT 140V210 9999 // NCD 20/14 Q1019 EDHK 182120Z AUTO 16006KT 9999 // NCD 20/14 Q1019 EDHK 182050Z AUTO 17005KT 130V200 9999 // NCD 20/14 Q1020 EDHK 182020Z AUTO 17004KT 9999 // NCD 21/15 Q1020 EDHK 181950Z AUTO 16003KT 110V180 9999 // FEW130/// 21/15 Q1020 EDHK 181920Z AUTO 16004KT 9999 // BKN110/// 21/15 Q1020 EDHK 181850Z AUTO 15004KT 9999 // FEW120/// 22/15 Q1020 EDHK 181820Z AUTO 16005KT 130V200 9999 // FEW240/// 22/15 Q1020 EDHK 181750Z AUTO 17005KT 9999 // NCD 23/15 Q1020 EDHK 181720Z AUTO 16006KT 130V200 9999 // FEW110/// 23/15 Q1020 EDHK 181650Z AUTO 16006KT 9999 // BKN130/// 23/15 Q1020 EDHK 181620Z AUTO 17006KT 140V200 9999 // FEW044/// 24/15 Q1020 EDHK 181550Z 17005KT 130V240 9999 FEW044 24/15 Q1020 EDHK 181520Z 16007KT 9999 FEW045 24/15 Q1020 EDHK 181450Z 17006KT 130V220 9999 FEW043 24/14 Q1021 EDHK 181420Z 17007KT CAVOK 24/14 Q1021 EDHK 181350Z 17007KT 130V200 CAVOK 23/14 Q1021 EDHK 181320Z 16009KT CAVOK 23/14 Q1021

METAR Messwerte "KIEL/HOLTENAU CI" EDHK

Zurück zur Übersicht

Ortsname
Ländercode / m ü. NN
Zeit Temperatur Taupunkt Rel.
Luftfeuchte
Luftdruck:
Altimeter
NN
Station
Wind in Beaufort
(Knoten)
Sichtweite
(Meter)
Wolken
(Meter über Grund)
Wettererscheinung
KIEL/HOLTENAU CI
DE 24
Fr 20.05. 02:50151494 %1017
1017
1014
W 3 (10)4800Bedeckt (150) 
KIEL/HOLTENAU CI
DE 24
Fr 20.05. 02:201515100 %1017
1017
1014
WSW 3 (7)4600Stark bewölkt (240) 
KIEL/HOLTENAU CI
DE 24
Fr 20.05. 01:501414100 %1017
1017
1014
W 3 (7)5000Leicht bewölkt (210) 
KIEL/HOLTENAU CI
DE 24
Fr 20.05. 01:201515100 %1017
1017
1014
W 3 (7)5000Stark bewölkt (1000)
Leicht bewölkt (240)
 
KIEL/HOLTENAU CI
DE 24
Fr 20.05. 00:501515100 %1017
1017
1014
W 3 (9)4100Stark bewölkt (1200)
Wolkig (1000)
Leicht bewölkt (210)
 
KIEL/HOLTENAU CI
DE 24
Fr 20.05. 00:201515100 %1017
1017
1014
W 3 (7)4100Bedeckt (2500)
Stark bewölkt (1600)
Leicht bewölkt (180)
 
KIEL/HOLTENAU CI
DE 24
Do 19.05. 23:501616100 %1017
1017
1014
W 3 (8)4600Bedeckt (1500)
Leicht bewölkt (180)
 
KIEL/HOLTENAU CI
DE 24
Do 19.05. 23:201616100 %1017
1017
1014
WSW 3 (8)5000Stark bewölkt (1400)
Leicht bewölkt (240)
 
KIEL/HOLTENAU CI
DE 24
Do 19.05. 22:501616100 %1016
1016
1013
WSW 3 (8)7000Nicht signifikant 
KIEL/HOLTENAU CI
DE 24
Do 19.05. 22:201616100 %1016
1016
1013
WSW 2 (6)8000Nicht signifikant 
KIEL/HOLTENAU CI
DE 24
Do 19.05. 21:501616100 %1016
1016
1013
SW 2 (5)6000Nicht signifikant 
KIEL/HOLTENAU CI
DE 24
Do 19.05. 20:501616100 %1015
1015
1012
Uml 2 (4)9000Leicht bewölkt (1500) 
KIEL/HOLTENAU CI
DE 24
Do 19.05. 20:20171694 %1015
1015
1012
Uml 1 (2)3800Stark bewölkt (5500)
Wolkig (3000)
Leicht bewölkt (1000)
 
KIEL/HOLTENAU CI
DE 24
Do 19.05. 19:50171694 %1014
1014
1011
SSO 2 (4)
OSO - SSW
4500Bedeckt (3400)
Wolkig (3000)
Leicht bewölkt (2200)
 
KIEL/HOLTENAU CI
DE 24
Do 19.05. 19:20171694 %1016
1016
1013
WSW 2 (5)
SSW - WNW
6000Bedeckt (3000)
Stark bewölkt (2200)
Leicht bewölkt (790)
 
KIEL/HOLTENAU CI
DE 24
Do 19.05. 18:50181583 %1016
1016
1013
WNW 3 (8)3400Stark bewölkt (850) 
KIEL/HOLTENAU CI
DE 24
Do 19.05. 18:20191473 %1015
1015
1012
N 2 (5)>= 10000Stark bewölkt (3400)
Leicht bewölkt (2300)
 
KIEL/HOLTENAU CI
DE 24
Do 19.05. 17:50191578 %1016
1016
1013
N 2 (6)>= 10000Nicht signifikant 
KIEL/HOLTENAU CI
DE 24
Do 19.05. 17:20201468 %1015
1015
1012
ONO 2 (5)
NNO - O
>= 10000Nicht signifikant 
KIEL/HOLTENAU CI
DE 24
Do 19.05. 16:50201573 %1016
1016
1013
O 3 (7)>= 10000Nicht signifikant 
KIEL/HOLTENAU CI
DE 24
Do 19.05. 16:20201468 %1016
1016
1013
NO 3 (8)>= 10000Nicht signifikant 
KIEL/HOLTENAU CI
DE 24
Do 19.05. 15:50201573 %1016
1016
1013
NO 2 (6)
N - O
>= 10000Nicht signifikant 
KIEL/HOLTENAU CI
DE 24
Do 19.05. 15:20201573 %1016
1016
1013
ONO 3 (9)>= 10000Nicht signifikant 
KIEL/HOLTENAU CI
DE 24
Do 19.05. 14:50201573 %1016
1016
1013
NNO 4 (11)>= 10000Wolkig (1300) 
KIEL/HOLTENAU CI
DE 24
Do 19.05. 14:20251554 %1016
1016
1013
WNW 3 (7)
WSW - NNW
>= 10000Leicht bewölkt (1300) 
KIEL/HOLTENAU CI
DE 24
Do 19.05. 13:50251657 %1017
1017
1014
W 2 (5)
SW - NW
>= 10000Nicht signifikant 
KIEL/HOLTENAU CI
DE 24
Do 19.05. 13:20241557 %1017
1017
1014
W 3 (7)
SW - WNW
>= 10000Nicht signifikant 
KIEL/HOLTENAU CI
DE 24
Do 19.05. 12:50241454 %1017
1017
1014
W 4 (12)>= 10000Nicht signifikant 
KIEL/HOLTENAU CI
DE 24
Do 19.05. 12:20241454 %1017
1017
1014
WSW 3 (10)>= 10000Nicht signifikant 
KIEL/HOLTENAU CI
DE 24
Do 19.05. 11:50241454 %1017
1017
1014
WSW 3 (9)
S - WNW
>= 10000Nicht signifikant 
KIEL/HOLTENAU CI
DE 24
Do 19.05. 11:20241557 %1017
1017
1014
SW 3 (9)
SSW - W
>= 10000Nicht signifikant 
KIEL/HOLTENAU CI
DE 24
Do 19.05. 10:50241454 %1017
1017
1014
SW 3 (9)
S - WSW
>= 10000Nicht signifikant 
KIEL/HOLTENAU CI
DE 24
Do 19.05. 10:20231561 %1018
1018
1015
SSW 3 (8)
S - WSW
>= 10000Nicht signifikant 
KIEL/HOLTENAU CI
DE 24
Do 19.05. 09:50221565 %1018
1018
1015
S 2 (5)>= 10000Nicht signifikant 
KIEL/HOLTENAU CI
DE 24
Do 19.05. 09:20201573 %1018
1018
1015
S 2 (5)>= 10000Nicht signifikant 
KIEL/HOLTENAU CI
DE 24
Do 19.05. 08:50191473 %1018
1018
1015
SSO 2 (6)>= 10000Nicht signifikant 
KIEL/HOLTENAU CI
DE 24
Do 19.05. 08:20191578 %1018
1018
1015
S 2 (4)>= 10000Nicht signifikant 
KIEL/HOLTENAU CI
DE 24
Do 19.05. 07:50181583 %1018
1018
1015
S 2 (3)>= 10000Nicht signifikant 
KIEL/HOLTENAU CI
DE 24
Do 19.05. 07:20171482 %1018
1018
1015
S 2 (4)>= 10000Nicht signifikant 
KIEL/HOLTENAU CI
DE 24
Do 19.05. 06:50171482 %1018
1018
1015
S 2 (3)>= 10000Nicht signifikant 
KIEL/HOLTENAU CI
DE 24
Do 19.05. 06:20161488 %1018
1018
1015
S 2 (4)>= 10000  
KIEL/HOLTENAU CI
DE 24
Do 19.05. 05:50161488 %1018
1018
1015
SSW 2 (3)>= 10000  
KIEL/HOLTENAU CI
DE 24
Do 19.05. 05:20171482 %1018
1018
1015
SSW 2 (3)
S - WSW
>= 10000  
KIEL/HOLTENAU CI
DE 24
Do 19.05. 04:50171482 %1018
1018
1015
WSW 2 (5)>= 10000  
KIEL/HOLTENAU CI
DE 24
Do 19.05. 04:20181477 %1018
1018
1015
SW 2 (5)>= 10000  
KIEL/HOLTENAU CI
DE 24
Do 19.05. 03:50191473 %1018
1018
1015
SW 2 (5)>= 10000  
KIEL/HOLTENAU CI
DE 24
Do 19.05. 03:20191473 %1018
1018
1015
SSW 2 (6)
SSO - SW
>= 10000  
KIEL/HOLTENAU CI
DE 24
Do 19.05. 02:50191473 %1018
1018
1015
SSW 2 (6)
S - SW
>= 10000  
KIEL/HOLTENAU CI
DE 24
Do 19.05. 02:20191473 %1018
1018
1015
S 2 (5)
SSO - SW
>= 10000  
KIEL/HOLTENAU CI
DE 24
Do 19.05. 01:50201468 %1019
1019
1016
S 2 (6)>= 10000  
KIEL/HOLTENAU CI
DE 24
Do 19.05. 01:20201468 %1019
1019
1016
S 2 (6)
SSO - SW
>= 10000  
KIEL/HOLTENAU CI
DE 24
Do 19.05. 00:50201468 %1019
1019
1016
S 2 (6)
SSO - SSW
>= 10000  
KIEL/HOLTENAU CI
DE 24
Do 19.05. 00:20201468 %1019
1019
1016
S 3 (7)
SSO - SSW
>= 10000Leicht bewölkt (2700) 
KIEL/HOLTENAU CI
DE 24
Mi 18.05. 23:50201468 %1019
1019
1016
S 2 (6)
SO - SSW
>= 10000  
KIEL/HOLTENAU CI
DE 24
Mi 18.05. 23:20201468 %1019
1019
1016
SSO 2 (6)>= 10000  
KIEL/HOLTENAU CI
DE 24
Mi 18.05. 22:50201468 %1020
1020
1017
S 2 (5)
SO - SSW
>= 10000  
KIEL/HOLTENAU CI
DE 24
Mi 18.05. 22:20211569 %1020
1020
1017
S 2 (4)>= 10000  
KIEL/HOLTENAU CI
DE 24
Mi 18.05. 21:50211569 %1020
1020
1017
SSO 2 (3)
OSO - S
>= 10000Leicht bewölkt (4000) 
KIEL/HOLTENAU CI
DE 24
Mi 18.05. 21:20211569 %1020
1020
1017
SSO 2 (4)>= 10000Stark bewölkt (3400) 
KIEL/HOLTENAU CI
DE 24
Mi 18.05. 20:50221565 %1020
1020
1017
SSO 2 (4)>= 10000Leicht bewölkt (3700) 
KIEL/HOLTENAU CI
DE 24
Mi 18.05. 20:20221565 %1020
1020
1017
SSO 2 (5)
SO - SSW
>= 10000Leicht bewölkt (7300) 
KIEL/HOLTENAU CI
DE 24
Mi 18.05. 19:50231561 %1020
1020
1017
S 2 (5)>= 10000  
KIEL/HOLTENAU CI
DE 24
Mi 18.05. 19:20231561 %1020
1020
1017
SSO 2 (6)
SO - SSW
>= 10000Leicht bewölkt (3400) 
KIEL/HOLTENAU CI
DE 24
Mi 18.05. 18:50231561 %1020
1020
1017
SSO 2 (6)>= 10000Stark bewölkt (4000) 
KIEL/HOLTENAU CI
DE 24
Mi 18.05. 18:20241557 %1020
1020
1017
S 2 (6)
SO - SSW
>= 10000Leicht bewölkt (1300) 
KIEL/HOLTENAU CI
DE 24
Mi 18.05. 17:50241557 %1020
1020
1017
S 2 (5)
SO - WSW
>= 10000Leicht bewölkt (1300) 
KIEL/HOLTENAU CI
DE 24
Mi 18.05. 17:20241557 %1020
1020
1017
SSO 3 (7)>= 10000Leicht bewölkt (1400) 
KIEL/HOLTENAU CI
DE 24
Mi 18.05. 16:50241454 %1021
1021
1018
S 2 (6)
SO - SW
>= 10000Leicht bewölkt (1300) 
KIEL/HOLTENAU CI
DE 24
Mi 18.05. 16:20241454 %1021
1021
1018
S 3 (7)>= 10000Nicht signifikant 
KIEL/HOLTENAU CI
DE 24
Mi 18.05. 15:50231457 %1021
1021
1018
S 3 (7)
SO - SSW
>= 10000Nicht signifikant 
KIEL/HOLTENAU CI
DE 24
Mi 18.05. 15:20231457 %1021
1021
1018
SSO 3 (9)>= 10000Nicht signifikant 

Altimeter: Einstellung am Altimeter (Höhenmesser), die Höhe 0 muss auf diesen Luftdruckwert zeigen, damit das Gerät die Stationshöhe richtig anzeigt.

NN: Luftdruck reduziert auf "Normal Null", auf Meereshöhe, dieser von der Temperatur abhängige Wert wird bisweilen unkorrekt einfach als "Luftdruck" bezeichnet. Eigentlich nur eine fiktive Größe, die es erlaubt, Stationen auf unterschiedlichen Höhen miteinander zu vergleichen.

Station: Realer Luftdruck an der Station.